createdAt,value
2022-11-26T00:02:29.340Z,33.47
2022-11-26T00:04:57.226Z,32.42
2022-11-26T00:07:26.850Z,34.67
2022-11-26T00:09:54.794Z,28.88
2022-11-26T00:12:29.878Z,25.33
2022-11-26T00:14:56.934Z,29.42
2022-11-26T00:17:23.866Z,22.02
2022-11-26T00:19:50.880Z,22.15
2022-11-26T00:22:25.812Z,27.75
2022-11-26T00:24:53.144Z,23.63
2022-11-26T00:27:20.095Z,23.00
2022-11-26T00:29:47.104Z,24.90
2022-11-26T00:32:18.150Z,24.42
2022-11-26T00:34:45.184Z,25.10
2022-11-26T00:37:35.834Z,26.17
2022-11-26T00:40:02.852Z,29.23
2022-11-26T00:42:29.775Z,29.80
2022-11-26T00:44:56.727Z,35.58
2022-11-26T00:47:23.722Z,28.25
2022-11-26T00:49:50.797Z,29.55
2022-11-26T00:52:33.646Z,31.10
2022-11-26T00:55:01.888Z,31.95
2022-11-26T00:57:28.787Z,30.50
2022-11-26T00:59:55.814Z,23.08
2022-11-26T01:02:22.849Z,24.60
2022-11-26T01:04:49.876Z,27.15
2022-11-26T01:07:16.836Z,25.92
2022-11-26T01:09:44.294Z,23.77
2022-11-26T01:12:14.606Z,23.75
2022-11-26T01:14:41.633Z,26.20
2022-11-26T01:17:11.176Z,25.30
2022-11-26T01:19:38.155Z,24.35
2022-11-26T01:22:05.110Z,21.17
2022-11-26T01:24:37.848Z,22.83
2022-11-26T01:27:09.317Z,23.57
2022-11-26T01:29:36.308Z,21.77
2022-11-26T01:32:03.375Z,21.48
2022-11-26T01:34:30.442Z,23.20
2022-11-26T01:36:57.488Z,23.80
2022-11-26T01:39:25.059Z,23.88
2022-11-26T01:42:00.944Z,22.73
2022-11-26T01:44:29.891Z,22.50
2022-11-26T01:46:57.236Z,23.67
2022-11-26T01:49:25.253Z,21.35
2022-11-26T01:51:59.443Z,26.55
2022-11-26T01:54:26.433Z,21.17
2022-11-26T01:56:54.811Z,18.83
2022-11-26T01:59:29.880Z,20.23
2022-11-26T02:01:58.176Z,19.73
2022-11-26T02:04:28.801Z,20.58
2022-11-26T02:06:56.362Z,17.73
2022-11-26T02:09:23.925Z,16.70
2022-11-26T02:11:50.857Z,20.05
2022-11-26T02:14:20.114Z,19.88
2022-11-26T02:17:24.582Z,19.85
2022-11-26T02:20:03.727Z,19.35
2022-11-26T02:22:51.364Z,18.77
2022-11-26T02:25:44.459Z,20.52
2022-11-26T02:28:48.009Z,20.75
2022-11-26T02:31:26.244Z,24.35
2022-11-26T02:34:15.633Z,20.75
2022-11-26T02:37:04.437Z,24.85
2022-11-26T02:39:31.901Z,26.02
2022-11-26T02:42:00.434Z,23.50
2022-11-26T02:44:54.590Z,21.25
2022-11-26T02:47:21.863Z,17.98
2022-11-26T02:49:48.853Z,24.25
2022-11-26T02:52:15.912Z,22.40
2022-11-26T02:54:42.983Z,19.83
2022-11-26T02:57:12.179Z,21.95
2022-11-26T02:59:39.143Z,19.75
2022-11-26T03:02:25.114Z,23.25
2022-11-26T03:04:53.587Z,16.58
2022-11-26T03:07:20.573Z,21.77
2022-11-26T03:09:58.291Z,20.45
2022-11-26T03:12:25.356Z,19.80
2022-11-26T03:14:52.332Z,21.52
2022-11-26T03:17:19.352Z,18.63
2022-11-26T03:19:46.657Z,18.63
2022-11-26T03:22:14.049Z,20.40
2022-11-26T03:24:41.455Z,17.73
2022-11-26T03:27:08.496Z,18.25
2022-11-26T03:29:35.499Z,18.70
2022-11-26T03:32:02.525Z,19.88
2022-11-26T03:34:29.561Z,20.27
2022-11-26T03:36:56.569Z,22.80
2022-11-26T03:39:23.622Z,17.65
2022-11-26T03:41:50.529Z,21.08
2022-11-26T03:44:17.602Z,19.90
2022-11-26T03:46:44.562Z,18.73
2022-11-26T03:49:11.662Z,20.52
2022-11-26T03:51:38.619Z,17.08
2022-11-26T03:54:05.627Z,19.55
2022-11-26T03:56:32.591Z,18.48
2022-11-26T03:58:59.592Z,19.52
2022-11-26T04:01:26.576Z,20.48
2022-11-26T04:03:53.602Z,15.48
2022-11-26T04:06:20.783Z,15.70
2022-11-26T04:08:47.778Z,19.23
2022-11-26T04:11:14.739Z,15.70
2022-11-26T04:13:41.873Z,20.58
2022-11-26T04:16:09.078Z,21.33
2022-11-26T04:18:36.247Z,21.23
2022-11-26T04:21:04.340Z,16.98
2022-11-26T04:23:31.325Z,16.38
2022-11-26T04:25:58.272Z,17.90
2022-11-26T04:28:25.256Z,16.95
2022-11-26T04:30:52.303Z,21.17
2022-11-26T04:33:19.236Z,21.88
2022-11-26T04:35:46.224Z,19.23
2022-11-26T04:38:13.172Z,16.52
2022-11-26T04:40:40.207Z,18.20
2022-11-26T04:43:07.263Z,19.27
2022-11-26T04:45:34.266Z,18.95
2022-11-26T04:48:01.413Z,19.92
2022-11-26T04:50:28.625Z,17.55
2022-11-26T04:52:55.749Z,18.63
2022-11-26T04:55:22.790Z,18.63
2022-11-26T04:57:49.922Z,18.90
2022-11-26T05:00:17.613Z,18.27
2022-11-26T05:02:44.899Z,21.77
2022-11-26T05:05:12.328Z,21.85
2022-11-26T05:07:39.332Z,20.65
2022-11-26T05:10:07.553Z,17.65
2022-11-26T05:12:34.871Z,23.23
2022-11-26T05:15:02.992Z,21.50
2022-11-26T05:17:30.050Z,20.48
2022-11-26T05:19:57.030Z,21.63
2022-11-26T05:22:24.000Z,23.10
2022-11-26T05:24:50.985Z,23.23
2022-11-26T05:27:17.943Z,21.70
2022-11-26T05:29:44.974Z,24.58
2022-11-26T05:32:12.226Z,25.63
2022-11-26T05:34:39.318Z,24.42
2022-11-26T05:37:06.419Z,23.38
2022-11-26T05:39:33.412Z,22.77
2022-11-26T05:42:03.575Z,23.35
2022-11-26T05:44:33.396Z,22.67
2022-11-26T05:47:00.310Z,22.25
2022-11-26T05:49:27.329Z,23.13
2022-11-26T05:51:54.330Z,25.63
2022-11-26T05:54:21.477Z,21.52
2022-11-26T05:56:48.391Z,24.45
2022-11-26T05:59:15.414Z,23.38
2022-11-26T06:01:42.356Z,26.35
2022-11-26T06:04:09.322Z,22.92
2022-11-26T06:06:36.304Z,23.17
2022-11-26T06:09:03.597Z,28.30
2022-11-26T06:11:30.743Z,24.10
2022-11-26T06:13:57.681Z,23.25
2022-11-26T06:16:24.723Z,29.40
2022-11-26T06:18:51.789Z,21.45
2022-11-26T06:21:19.454Z,23.60
2022-11-26T06:23:54.266Z,23.15
2022-11-26T06:26:24.902Z,24.65
2022-11-26T06:28:51.921Z,23.13
2022-11-26T06:31:19.074Z,29.15
2022-11-26T06:33:46.149Z,23.13
2022-11-26T06:36:13.176Z,25.10
2022-11-26T06:38:40.235Z,19.75
2022-11-26T06:41:08.199Z,27.05
2022-11-26T06:43:35.607Z,21.85
2022-11-26T06:46:07.875Z,22.85
2022-11-26T06:48:35.429Z,24.17
2022-11-26T06:51:11.483Z,23.25
2022-11-26T06:53:38.627Z,23.20
2022-11-26T06:56:07.583Z,22.42
2022-11-26T06:58:34.713Z,24.55
2022-11-26T07:01:10.943Z,22.02
2022-11-26T07:03:38.604Z,24.38
2022-11-26T07:06:05.823Z,30.25
2022-11-26T07:08:32.944Z,23.88
2022-11-26T07:11:03.803Z,28.10
2022-11-26T07:13:31.175Z,24.55
2022-11-26T07:16:03.045Z,25.10
2022-11-26T07:18:30.086Z,28.92
2022-11-26T07:20:57.364Z,23.27
2022-11-26T07:23:24.953Z,21.58
2022-11-26T07:25:52.060Z,25.52
2022-11-26T07:28:19.146Z,29.02
2022-11-26T07:30:46.348Z,25.75
2022-11-26T07:33:13.551Z,26.95
2022-11-26T07:35:40.498Z,28.40
2022-11-26T07:38:07.449Z,25.17
2022-11-26T07:40:34.462Z,30.48
2022-11-26T07:43:01.420Z,26.02
2022-11-26T07:45:30.447Z,28.42
2022-11-26T07:48:00.658Z,25.13
2022-11-26T07:50:34.309Z,25.35
2022-11-26T07:53:16.080Z,27.10
2022-11-26T07:55:44.404Z,22.98
2022-11-26T07:58:12.581Z,23.63
2022-11-26T08:00:44.183Z,27.02
2022-11-26T08:03:11.470Z,27.90
2022-11-26T08:05:42.635Z,23.77
2022-11-26T08:08:12.544Z,26.30
2022-11-26T08:10:40.679Z,29.95
2022-11-26T08:13:10.713Z,28.70
2022-11-26T08:15:37.947Z,30.17
2022-11-26T08:18:07.252Z,29.13
2022-11-26T08:20:35.429Z,29.42
2022-11-26T08:23:07.266Z,32.35
2022-11-26T08:25:35.886Z,27.30
2022-11-26T08:28:06.534Z,28.52
2022-11-26T08:30:34.664Z,28.98
2022-11-26T08:33:09.422Z,25.88
2022-11-26T08:36:05.645Z,24.67
2022-11-26T08:38:27.717Z,31.23
2022-11-26T08:40:56.971Z,25.98
2022-11-26T08:43:34.658Z,31.67
2022-11-26T08:46:44.436Z,27.95
2022-11-26T08:49:15.210Z,29.00
2022-11-26T08:51:43.596Z,29.13
2022-11-26T08:54:26.493Z,30.30
2022-11-26T08:57:24.610Z,31.33
2022-11-26T09:00:00.349Z,34.33
2022-11-26T09:02:31.086Z,32.42
2022-11-26T09:05:10.415Z,30.02
2022-11-26T09:07:59.366Z,33.08
2022-11-26T09:18:38.155Z,25.48
2022-11-26T09:20:57.121Z,24.15
2022-11-26T09:24:20.882Z,29.52
2022-11-26T09:30:19.703Z,29.45
2022-11-26T09:32:47.214Z,27.77
2022-11-26T09:35:36.319Z,27.48
2022-11-26T09:39:33.918Z,29.00
2022-11-26T09:49:58.334Z,24.02
2022-11-26T09:52:32.844Z,26.58
2022-11-26T09:55:15.647Z,29.35
2022-11-26T09:57:44.899Z,31.33
2022-11-26T10:00:37.368Z,31.00
2022-11-26T10:03:14.854Z,31.33
2022-11-26T10:09:06.240Z,29.92
2022-11-26T10:13:03.436Z,34.70
2022-11-26T10:14:50.831Z,32.90
2022-11-26T10:18:31.150Z,31.25
2022-11-26T10:22:24.468Z,33.92
2022-11-26T10:29:09.397Z,32.83
2022-11-26T10:34:11.839Z,35.28
2022-11-26T10:59:38.745Z,32.08
2022-11-26T11:01:09.109Z,31.17
2022-11-26T11:04:11.951Z,31.95
2022-11-26T11:06:42.721Z,31.38
2022-11-26T11:09:42.867Z,44.17
2022-11-26T11:24:06.984Z,33.10
2022-11-26T11:28:49.163Z,36.42
2022-11-26T11:31:40.580Z,32.90
2022-11-26T11:54:12.234Z,35.33
2022-11-26T11:56:46.097Z,33.33
2022-11-26T11:59:41.371Z,31.80
2022-11-26T12:02:39.057Z,35.20
2022-11-26T12:05:34.366Z,38.65
2022-11-26T12:08:41.283Z,34.50
2022-11-26T12:11:40.868Z,33.42
2022-11-26T12:14:46.261Z,30.15
2022-11-26T12:17:33.083Z,35.70
2022-11-26T12:20:27.672Z,36.80
2022-11-26T12:23:30.292Z,39.40
2022-11-26T12:26:28.572Z,37.60
2022-11-26T12:29:26.610Z,35.92
2022-11-26T12:33:42.043Z,40.15
2022-11-26T12:39:23.361Z,35.95
2022-11-26T12:42:51.300Z,34.75
2022-11-26T12:45:54.480Z,38.08
2022-11-26T12:48:33.034Z,37.70
2022-11-26T12:51:32.617Z,38.47
2022-11-26T12:54:23.413Z,36.38
2022-11-26T12:57:11.309Z,35.38
2022-11-26T13:00:00.090Z,35.95
2022-11-26T13:02:35.414Z,32.78
2022-11-26T13:05:02.725Z,30.80
2022-11-26T13:07:57.462Z,37.50
2022-11-26T13:10:32.209Z,37.92
2022-11-26T13:13:08.198Z,36.85
2022-11-26T13:15:42.236Z,37.78
2022-11-26T13:18:24.046Z,35.35
2022-11-26T13:21:35.946Z,31.27
2022-11-26T13:24:17.434Z,33.08
2022-11-26T13:27:22.990Z,31.55
2022-11-26T13:30:02.091Z,37.17
2022-11-26T13:32:38.310Z,38.05
2022-11-26T13:35:20.249Z,29.33
2022-11-26T13:38:10.488Z,39.58
2022-11-26T13:40:58.867Z,41.97
2022-11-26T13:43:26.135Z,56.75
2022-11-26T13:45:58.804Z,46.50
2022-11-26T13:48:52.398Z,45.67
2022-11-26T13:51:27.633Z,42.70
2022-11-26T13:53:59.172Z,47.33
2022-11-26T13:56:32.403Z,46.17
2022-11-26T13:59:08.853Z,43.38
2022-11-26T14:01:40.479Z,43.75
2022-11-26T14:04:09.021Z,42.20
2022-11-26T14:06:36.967Z,44.13
2022-11-26T14:09:06.959Z,45.53
2022-11-26T14:11:54.642Z,49.53
2022-11-26T14:14:29.416Z,37.38
2022-11-26T14:17:00.844Z,36.72
2022-11-26T14:19:40.423Z,33.22
2022-11-26T14:22:08.788Z,37.25
2022-11-26T14:24:53.383Z,36.13
2022-11-26T14:27:31.028Z,32.85
2022-11-26T14:30:07.061Z,29.92
2022-11-26T14:33:04.042Z,34.70
2022-11-26T14:35:34.386Z,33.15
2022-11-26T14:38:03.616Z,31.38
2022-11-26T14:40:37.979Z,29.70
2022-11-26T14:43:11.247Z,30.02
2022-11-26T14:45:38.336Z,36.45
2022-11-26T14:48:05.635Z,36.35
2022-11-26T14:50:33.339Z,34.95
2022-11-26T14:53:03.568Z,36.10
2022-11-26T14:55:31.167Z,41.60
2022-11-26T14:58:08.643Z,35.15
2022-11-26T15:00:40.139Z,36.22
2022-11-26T15:03:27.911Z,37.63
2022-11-26T15:05:54.951Z,33.35
2022-11-26T15:08:24.391Z,36.90
2022-11-26T15:14:03.926Z,32.95
2022-11-26T15:20:42.946Z,29.30
2022-11-26T15:23:26.853Z,28.65
2022-11-26T15:26:00.192Z,31.15
2022-11-26T15:28:42.555Z,29.80
2022-11-26T15:31:10.209Z,27.55
2022-11-26T15:33:38.077Z,31.08
2022-11-26T15:36:06.038Z,31.23
2022-11-26T15:38:34.357Z,36.53
2022-11-26T15:41:06.970Z,31.38
2022-11-26T15:43:47.824Z,36.95
2022-11-26T15:46:19.337Z,41.83
2022-11-26T15:48:59.894Z,39.75
2022-11-26T15:51:35.507Z,41.47
2022-11-26T15:54:16.320Z,42.15
2022-11-26T15:56:43.355Z,36.90
2022-11-26T15:59:31.842Z,37.92
2022-11-26T16:05:51.586Z,34.95
2022-11-26T16:08:32.063Z,34.08
2022-11-26T16:11:11.970Z,31.27
2022-11-26T16:13:41.775Z,37.10
2022-11-26T16:16:29.285Z,29.83
2022-11-26T16:19:00.488Z,33.15
2022-11-26T16:21:29.752Z,31.65
2022-11-26T16:23:59.761Z,32.13
2022-11-26T16:26:27.157Z,31.48
2022-11-26T16:28:54.249Z,28.38
2022-11-26T16:31:21.473Z,25.02
2022-11-26T16:33:48.601Z,26.70
2022-11-26T16:36:22.344Z,25.38
2022-11-26T16:41:17.333Z,22.73
2022-11-26T16:43:44.608Z,25.02
2022-11-26T16:46:18.993Z,21.13
2022-11-26T16:48:46.253Z,20.65
2022-11-26T16:51:13.277Z,25.15
2022-11-26T16:53:40.217Z,17.05
2022-11-26T16:56:07.707Z,25.30
2022-11-26T16:58:35.765Z,24.75
2022-11-26T17:01:02.737Z,29.83
2022-11-26T17:03:33.278Z,23.38
2022-11-26T17:06:02.643Z,22.83
2022-11-26T17:08:30.246Z,22.38
2022-11-26T17:10:57.609Z,25.27
2022-11-26T17:13:25.479Z,24.48
2022-11-26T17:15:54.727Z,25.77
2022-11-26T17:18:25.540Z,23.98
2022-11-26T17:20:53.366Z,29.23
2022-11-26T17:23:20.361Z,25.15
2022-11-26T17:25:51.564Z,23.27
2022-11-26T17:28:18.569Z,23.42
2022-11-26T17:30:47.500Z,22.17
2022-11-26T17:33:14.527Z,24.48
2022-11-26T17:35:47.224Z,22.92
2022-11-26T17:38:18.198Z,23.70
2022-11-26T17:40:46.466Z,22.25
2022-11-26T17:43:17.284Z,23.13
2022-11-26T17:45:44.362Z,32.70
2022-11-26T17:48:17.295Z,24.52
2022-11-26T17:50:57.524Z,20.67
2022-11-26T17:53:24.632Z,21.67
2022-11-26T17:55:53.624Z,22.88
2022-11-26T17:58:20.806Z,23.60
2022-11-26T18:00:47.760Z,24.02
2022-11-26T18:03:14.780Z,20.58
2022-11-26T18:05:42.467Z,22.20
2022-11-26T18:08:10.826Z,26.20
2022-11-26T18:10:39.613Z,30.85
2022-11-26T18:13:06.720Z,29.77
2022-11-26T18:15:33.881Z,27.92
2022-11-26T18:18:00.934Z,27.90
2022-11-26T18:20:28.339Z,28.67
2022-11-26T18:22:57.087Z,28.10
2022-11-26T18:25:24.300Z,27.83
2022-11-26T18:27:51.898Z,23.83
2022-11-26T18:30:19.408Z,27.58
2022-11-26T18:32:46.418Z,25.95
2022-11-26T18:35:13.685Z,26.88
2022-11-26T18:37:40.881Z,27.70
2022-11-26T18:40:09.202Z,27.98
2022-11-26T18:42:37.885Z,22.30
2022-11-26T18:45:07.112Z,23.80
2022-11-26T18:47:35.221Z,26.45
2022-11-26T18:50:04.912Z,25.95
2022-11-26T18:52:31.894Z,29.08
2022-11-26T18:55:00.140Z,34.95
2022-11-26T18:57:27.714Z,39.20
2022-11-26T18:59:54.809Z,41.92
2022-11-26T19:02:21.900Z,47.92
2022-11-26T19:04:49.072Z,45.28
2022-11-26T19:07:16.129Z,44.50
2022-11-26T19:09:43.481Z,44.85
2022-11-26T19:12:12.604Z,38.35
2022-11-26T19:14:39.655Z,39.70
2022-11-26T19:17:06.679Z,38.30
2022-11-26T19:19:33.779Z,34.58
2022-11-26T19:22:01.824Z,30.48
2022-11-26T19:24:29.823Z,32.20
2022-11-26T19:26:57.380Z,35.10
2022-11-26T19:29:24.460Z,33.85
2022-11-26T19:31:51.456Z,35.30
2022-11-26T19:34:18.523Z,35.08
2022-11-26T19:36:48.768Z,28.40
2022-11-26T19:39:16.190Z,29.80
2022-11-26T19:41:43.382Z,28.98
2022-11-26T19:44:10.439Z,25.25
2022-11-26T19:46:41.099Z,28.20
2022-11-26T19:49:11.050Z,31.35
2022-11-26T19:51:37.965Z,30.92
2022-11-26T19:54:05.232Z,29.17
2022-11-26T19:56:32.404Z,27.90
2022-11-26T19:59:00.742Z,26.08
2022-11-26T20:01:30.688Z,28.58
2022-11-26T20:03:59.565Z,35.00
2022-11-26T20:06:27.319Z,24.35
2022-11-26T20:08:54.678Z,30.02
2022-11-26T20:11:22.057Z,24.08
2022-11-26T20:13:49.177Z,25.92
2022-11-26T20:16:21.125Z,23.98
2022-11-26T20:18:48.273Z,25.73
2022-11-26T20:21:19.834Z,20.80
2022-11-26T20:23:47.195Z,22.65
2022-11-26T20:26:18.152Z,23.38
2022-11-26T20:28:45.369Z,27.27
2022-11-26T20:31:13.022Z,24.88
2022-11-26T20:33:40.040Z,23.42
2022-11-26T20:36:08.401Z,20.45
2022-11-26T20:38:35.674Z,22.27
2022-11-26T20:41:09.858Z,20.38
2022-11-26T20:43:36.991Z,25.63
2022-11-26T20:46:05.457Z,25.52
2022-11-26T20:48:32.957Z,29.15
2022-11-26T20:51:03.927Z,30.52
2022-11-26T20:53:31.010Z,26.10
2022-11-26T20:55:57.991Z,23.85
2022-11-26T20:58:25.405Z,20.60
2022-11-26T21:00:54.278Z,20.60
2022-11-26T21:03:25.142Z,18.73
2022-11-26T21:05:52.312Z,24.33
2022-11-26T21:08:19.694Z,18.80
2022-11-26T21:10:46.713Z,21.58
2022-11-26T21:13:14.830Z,19.15
2022-11-26T21:15:42.422Z,19.80
2022-11-26T21:18:09.475Z,17.77
2022-11-26T21:20:43.498Z,22.40
2022-11-26T21:23:10.767Z,18.20
2022-11-26T21:25:41.677Z,22.02
2022-11-26T21:28:08.798Z,23.20
2022-11-26T21:30:35.848Z,23.52
2022-11-26T21:33:08.777Z,21.80
2022-11-26T21:35:36.741Z,21.80
2022-11-26T21:38:03.849Z,25.65
2022-11-26T21:40:30.879Z,21.40
2022-11-26T21:42:57.848Z,24.20
2022-11-26T21:45:25.306Z,26.13
2022-11-26T21:47:52.376Z,24.83
2022-11-26T21:50:19.542Z,27.45
2022-11-26T21:52:46.552Z,26.85
2022-11-26T21:55:13.520Z,25.00
2022-11-26T21:57:40.605Z,24.30
2022-11-26T22:00:08.646Z,23.20
2022-11-26T22:02:35.924Z,24.05
2022-11-26T22:05:02.988Z,27.98
2022-11-26T22:07:30.737Z,30.55
2022-11-26T22:09:57.861Z,33.88
2022-11-26T22:12:24.861Z,38.38
2022-11-26T22:14:54.304Z,34.13
2022-11-26T22:17:21.284Z,30.45
2022-11-26T22:19:48.489Z,38.92
2022-11-26T22:22:15.446Z,31.38
2022-11-26T22:24:42.465Z,32.17
2022-11-26T22:27:09.514Z,34.42
2022-11-26T22:29:36.656Z,29.65
2022-11-26T22:32:03.751Z,31.08
2022-11-26T22:34:31.006Z,31.88
2022-11-26T22:36:58.160Z,25.98
2022-11-26T22:39:25.135Z,28.52
2022-11-26T22:41:52.324Z,30.05
2022-11-26T22:44:19.364Z,29.23
2022-11-26T22:46:46.500Z,28.40
2022-11-26T22:49:15.811Z,26.77
2022-11-26T22:51:42.996Z,26.02
2022-11-26T22:54:11.180Z,29.17
2022-11-26T22:56:38.475Z,30.83
2022-11-26T22:59:06.296Z,29.25
2022-11-26T23:01:34.277Z,30.50
2022-11-26T23:04:02.344Z,26.98
2022-11-26T23:06:30.253Z,28.30
2022-11-26T23:08:58.401Z,24.08
2022-11-26T23:11:31.426Z,26.25
2022-11-26T23:13:58.592Z,26.85
2022-11-26T23:16:26.249Z,25.55
2022-11-26T23:18:54.139Z,26.65
2022-11-26T23:21:24.935Z,27.98
2022-11-26T23:23:52.153Z,25.02
2022-11-26T23:26:27.162Z,25.40
2022-11-26T23:28:55.265Z,25.52
2022-11-26T23:31:23.953Z,23.73
2022-11-26T23:33:51.051Z,29.08
2022-11-26T23:36:18.166Z,25.35
2022-11-26T23:38:45.162Z,23.63
2022-11-26T23:41:12.176Z,24.05
2022-11-26T23:43:39.693Z,24.20
2022-11-26T23:46:20.839Z,27.27
2022-11-26T23:48:48.106Z,29.67
2022-11-26T23:51:21.700Z,29.65
2022-11-26T23:56:20.784Z,25.15
2022-11-26T23:58:56.404Z,26.00
